Time;durP1;ratioP1;P1;durP2;ratioP2;P2;SDS_P1;SDS_P2;PMS_P1;PMS_P2;Temp;Humidity;BMP_temperature;BMP_pressure;BME280_temperature;BME280_humidity;BME280_pressure;Samples;Min_cycle;Max_cycle;Signal;HPM_P1;HPM_P2
2022/03/16 00:02:06;;;;;;;30.98;12.85;;;;;;;;;;5051345;28;20079;-68
2022/03/16 00:04:31;;;;;;;27.02;14.30;;;;;;;;;;5050001;28;20017;-68
2022/03/16 00:06:56;;;;;;;29.10;13.90;;;;;;;;;;5031373;28;20513;-68
2022/03/16 00:09:22;;;;;;;27.70;14.23;;;;;;;;;;5049774;28;20488;-67
2022/03/16 00:11:47;;;;;;;26.00;13.18;;;;;;;;;;5033280;28;20044;-68
2022/03/16 00:14:12;;;;;;;23.07;12.83;;;;;;;;;;5050529;28;20070;-68
2022/03/16 00:16:37;;;;;;;29.27;13.32;;;;;;;;;;5049566;28;20287;-68
2022/03/16 00:19:03;;;;;;;25.10;13.73;;;;;;;;;;5036064;28;20430;-68
2022/03/16 00:21:28;;;;;;;29.55;13.80;;;;;;;;;;5034088;28;20477;-69
2022/03/16 00:23:53;;;;;;;24.25;13.88;;;;;;;;;;5048940;28;20500;-68
2022/03/16 00:26:18;;;;;;;27.55;13.73;;;;;;;;;;5050762;28;20017;-68
2022/03/16 00:28:44;;;;;;;26.70;13.77;;;;;;;;;;5048854;28;20017;-68
2022/03/16 00:31:09;;;;;;;25.38;13.15;;;;;;;;;;5032620;28;20101;-68
2022/03/16 00:33:34;;;;;;;22.83;12.82;;;;;;;;;;5047496;28;20017;-68
2022/03/16 00:35:59;;;;;;;26.55;12.88;;;;;;;;;;5049236;28;20016;-68
2022/03/16 00:38:25;;;;;;;26.40;13.93;;;;;;;;;;5049221;28;20025;-68
2022/03/16 00:40:50;;;;;;;30.65;13.85;;;;;;;;;;5048925;28;20056;-68
2022/03/16 00:43:15;;;;;;;27.63;13.82;;;;;;;;;;5049429;28;20060;-68
2022/03/16 00:45:40;;;;;;;28.65;13.60;;;;;;;;;;5048607;28;20113;-68
2022/03/16 00:48:05;;;;;;;24.08;13.43;;;;;;;;;;5048989;28;20104;-68
2022/03/16 00:50:32;;;;;;;25.80;12.93;;;;;;;;;;5049178;28;20474;-68
2022/03/16 00:52:57;;;;;;;24.98;13.40;;;;;;;;;;5048480;28;20017;-68
2022/03/16 00:55:22;;;;;;;27.63;12.70;;;;;;;;;;5049950;28;20112;-68
2022/03/16 00:57:47;;;;;;;25.38;13.70;;;;;;;;;;5047954;28;20424;-68
2022/03/16 01:00:13;;;;;;;27.35;14.10;;;;;;;;;;5047076;22;20072;-69
2022/03/16 01:02:38;;;;;;;23.50;13.07;;;;;;;;;;5028763;28;20060;-70
2022/03/16 01:05:04;;;;;;;26.92;13.38;;;;;;;;;;5031128;28;20032;-69
2022/03/16 01:19:41;;;;;;;26.75;12.70;;;;;;;;;;5007551;28;20107;-69
2022/03/16 01:22:06;;;;;;;35.53;14.20;;;;;;;;;;5010729;28;20049;-69
2022/03/16 01:24:31;;;;;;;32.92;13.77;;;;;;;;;;5008486;28;20053;-68
2022/03/16 01:26:57;;;;;;;27.45;13.52;;;;;;;;;;5008306;28;20109;-68
2022/03/16 01:29:24;;;;;;;27.63;12.88;;;;;;;;;;5009436;28;20032;-68
2022/03/16 01:31:49;;;;;;;30.83;13.55;;;;;;;;;;5007617;28;20521;-68
2022/03/16 01:34:14;;;;;;;24.75;12.80;;;;;;;;;;5009165;28;20030;-68
2022/03/16 01:36:40;;;;;;;37.30;13.60;;;;;;;;;;5008232;28;20412;-68
2022/03/16 01:39:05;;;;;;;29.00;12.95;;;;;;;;;;5009325;28;20280;-69
2022/03/16 01:41:30;;;;;;;22.03;12.47;;;;;;;;;;5008334;28;20018;-69
2022/03/16 01:43:56;;;;;;;23.45;12.10;;;;;;;;;;5009248;28;20275;-69
2022/03/16 01:46:21;;;;;;;25.73;13.15;;;;;;;;;;5012781;28;20013;-69
2022/03/16 01:48:46;;;;;;;27.90;12.40;;;;;;;;;;5013239;28;20046;-69
2022/03/16 01:51:12;;;;;;;25.65;12.73;;;;;;;;;;5015272;28;20037;-69
2022/03/16 01:53:39;;;;;;;25.92;13.23;;;;;;;;;;5012736;28;20022;-69
2022/03/16 01:56:05;;;;;;;23.63;12.77;;;;;;;;;;5014997;28;20474;-69
2022/03/16 01:58:30;;;;;;;26.70;13.05;;;;;;;;;;5011865;28;20030;-69
2022/03/16 02:00:55;;;;;;;30.07;13.57;;;;;;;;;;5013772;28;20025;-67
2022/03/16 02:03:20;;;;;;;26.08;12.32;;;;;;;;;;5012048;28;20300;-69
2022/03/16 02:05:46;;;;;;;25.92;12.25;;;;;;;;;;5012783;28;20102;-69
2022/03/16 02:08:12;;;;;;;26.08;12.00;;;;;;;;;;5011438;28;20113;-69
2022/03/16 02:10:39;;;;;;;26.52;12.90;;;;;;;;;;5011791;28;20026;-69
2022/03/16 02:13:07;;;;;;;27.60;12.30;;;;;;;;;;5014514;28;20068;-69
2022/03/16 02:15:32;;;;;;;21.27;11.27;;;;;;;;;;5012773;28;20091;-69
2022/03/16 02:17:57;;;;;;;25.13;12.33;;;;;;;;;;5012102;28;20470;-69
2022/03/16 02:20:23;;;;;;;23.48;11.88;;;;;;;;;;5011406;28;20279;-69
2022/03/16 02:22:55;;;;;;;25.38;12.05;;;;;;;;;;5010133;28;20049;-68
2022/03/16 02:25:20;;;;;;;28.08;12.65;;;;;;;;;;5012491;28;20461;-68
2022/03/16 02:27:45;;;;;;;22.95;11.93;;;;;;;;;;5012834;28;20101;-69
2022/03/16 02:30:11;;;;;;;24.40;12.10;;;;;;;;;;5011648;28;20033;-68
2022/03/16 02:32:36;;;;;;;27.25;11.95;;;;;;;;;;5011469;28;20179;-67
2022/03/16 02:35:02;;;;;;;25.10;12.65;;;;;;;;;;5011807;28;20650;-68
2022/03/16 02:37:27;;;;;;;24.13;12.23;;;;;;;;;;5011531;28;20114;-68
2022/03/16 02:39:53;;;;;;;25.58;12.13;;;;;;;;;;5011713;28;20061;-68
2022/03/16 02:42:18;;;;;;;24.85;12.15;;;;;;;;;;4992897;28;20084;-68
2022/03/16 02:44:43;;;;;;;25.63;12.40;;;;;;;;;;5012080;28;20076;-68
2022/03/16 02:47:08;;;;;;;25.92;11.77;;;;;;;;;;5010300;28;20795;-68
2022/03/16 02:49:34;;;;;;;26.23;13.20;;;;;;;;;;5010732;28;20018;-68
2022/03/16 02:51:59;;;;;;;27.60;12.70;;;;;;;;;;5011107;28;20430;-68
2022/03/16 02:54:24;;;;;;;25.23;11.38;;;;;;;;;;5011406;28;20630;-68
2022/03/16 02:56:49;;;;;;;20.55;10.88;;;;;;;;;;5010749;28;20506;-68
2022/03/16 02:59:15;;;;;;;18.47;10.33;;;;;;;;;;5010608;28;20038;-68
2022/03/16 03:01:41;;;;;;;25.73;12.60;;;;;;;;;;5011039;28;20322;-68
2022/03/16 03:04:06;;;;;;;24.23;12.02;;;;;;;;;;5009772;28;20026;-68
2022/03/16 03:06:38;;;;;;;24.48;12.35;;;;;;;;;;5010937;28;20559;-68
2022/03/16 03:09:03;;;;;;;24.70;11.85;;;;;;;;;;5013364;28;20059;-67
2022/03/16 03:11:28;;;;;;;21.50;11.05;;;;;;;;;;5009805;28;20382;-69
2022/03/16 03:13:53;;;;;;;30.38;11.82;;;;;;;;;;5010958;28;20401;-68
2022/03/16 03:16:19;;;;;;;25.05;11.50;;;;;;;;;;5009742;28;20038;-69
2022/03/16 03:18:44;;;;;;;21.33;11.40;;;;;;;;;;5009231;28;20433;-68
2022/03/16 03:21:09;;;;;;;23.35;11.45;;;;;;;;;;5010915;28;20492;-69
2022/03/16 03:23:34;;;;;;;22.58;10.98;;;;;;;;;;4992644;28;20029;-68
2022/03/16 03:26:00;;;;;;;21.92;10.90;;;;;;;;;;5010369;28;20026;-69
2022/03/16 03:28:25;;;;;;;23.83;11.80;;;;;;;;;;5010270;28;20433;-69
2022/03/16 03:30:50;;;;;;;27.40;12.50;;;;;;;;;;5010266;28;20435;-69
2022/03/16 03:33:15;;;;;;;28.45;12.85;;;;;;;;;;5010977;28;20283;-68
2022/03/16 03:35:40;;;;;;;27.33;12.50;;;;;;;;;;5010036;28;20076;-68
2022/03/16 03:38:05;;;;;;;21.75;10.75;;;;;;;;;;5010157;28;20284;-69
2022/03/16 03:40:31;;;;;;;28.43;10.83;;;;;;;;;;5009672;28;20428;-69
2022/03/16 03:42:56;;;;;;;17.20;8.43;;;;;;;;;;5010291;28;20276;-68
2022/03/16 03:45:21;;;;;;;21.50;8.18;;;;;;;;;;5010118;28;20661;-68
2022/03/16 03:47:46;;;;;;;21.40;9.15;;;;;;;;;;5010059;28;20018;-69
2022/03/16 03:50:12;;;;;;;24.13;9.82;;;;;;;;;;5010266;28;20032;-68
2022/03/16 03:52:37;;;;;;;24.98;12.50;;;;;;;;;;4991700;28;20577;-69
2022/03/16 03:55:03;;;;;;;25.13;10.80;;;;;;;;;;5008789;28;20454;-68
2022/03/16 03:57:28;;;;;;;21.63;10.18;;;;;;;;;;5010274;28;20117;-68
2022/03/16 03:59:53;;;;;;;23.50;10.60;;;;;;;;;;5008689;28;20034;-68
2022/03/16 04:02:18;;;;;;;23.40;11.23;;;;;;;;;;5009718;28;20045;-69
2022/03/16 04:04:43;;;;;;;9.80;5.43;;;;;;;;;;5010353;28;20386;-68
2022/03/16 04:07:08;;;;;;;25.70;12.03;;;;;;;;;;5009199;28;20850;-69
2022/03/16 04:09:34;;;;;;;16.42;7.13;;;;;;;;;;5009715;28;20338;-68
2022/03/16 04:11:59;;;;;;;25.93;12.50;;;;;;;;;;5009594;28;20266;-68
2022/03/16 04:14:24;;;;;;;24.50;11.43;;;;;;;;;;4991346;28;20642;-69
2022/03/16 04:16:49;;;;;;;19.83;9.70;;;;;;;;;;5009823;28;20280;-69
2022/03/16 04:19:14;;;;;;;10.20;6.57;;;;;;;;;;5008870;28;20281;-68
2022/03/16 04:21:39;;;;;;;19.83;10.63;;;;;;;;;;5010220;28;20269;-68
2022/03/16 04:24:05;;;;;;;18.00;8.93;;;;;;;;;;5010059;28;20344;-68
2022/03/16 04:26:30;;;;;;;28.70;14.00;;;;;;;;;;5009526;28;20276;-68
2022/03/16 04:28:55;;;;;;;27.83;13.23;;;;;;;;;;5008533;28;20085;-68
2022/03/16 04:31:21;;;;;;;29.40;14.55;;;;;;;;;;5009249;28;20109;-67
2022/03/16 04:33:46;;;;;;;31.92;14.85;;;;;;;;;;5008555;28;20018;-68
2022/03/16 04:36:11;;;;;;;30.48;14.18;;;;;;;;;;5009741;28;20022;-68
2022/03/16 04:38:36;;;;;;;29.48;12.65;;;;;;;;;;5009075;28;20471;-68
2022/03/16 04:41:02;;;;;;;30.33;13.20;;;;;;;;;;5013459;28;20553;-69
2022/03/16 04:43:28;;;;;;;30.40;15.07;;;;;;;;;;5009390;28;20279;-69
2022/03/16 04:45:53;;;;;;;25.98;13.65;;;;;;;;;;5008963;28;20030;-68
2022/03/16 04:48:18;;;;;;;33.40;14.20;;;;;;;;;;5009347;28;20022;-68
2022/03/16 04:50:43;;;;;;;28.83;14.05;;;;;;;;;;5009657;28;20021;-68
2022/03/16 04:53:08;;;;;;;31.40;14.82;;;;;;;;;;5008378;28;20053;-68
2022/03/16 04:55:36;;;;;;;28.17;13.43;;;;;;;;;;5010141;28;20545;-68
2022/03/16 04:58:02;;;;;;;29.92;14.27;;;;;;;;;;5008545;28;20665;-68
2022/03/16 05:00:27;;;;;;;31.70;14.32;;;;;;;;;;5008846;28;20022;-68
2022/03/16 05:02:52;;;;;;;30.08;14.68;;;;;;;;;;5008954;28;20022;-68
2022/03/16 05:05:17;;;;;;;31.37;14.00;;;;;;;;;;5010439;28;20466;-69
2022/03/16 05:07:42;;;;;;;29.77;13.57;;;;;;;;;;5009468;28;20285;-67
2022/03/16 05:10:09;;;;;;;30.58;14.73;;;;;;;;;;5009671;28;20291;-68
2022/03/16 05:12:38;;;;;;;34.78;14.75;;;;;;;;;;5010154;28;20655;-68
2022/03/16 05:15:04;;;;;;;34.45;15.15;;;;;;;;;;5009843;28;20034;-68
2022/03/16 05:17:29;;;;;;;28.80;13.88;;;;;;;;;;5010376;28;20080;-68
2022/03/16 05:19:54;;;;;;;28.50;14.03;;;;;;;;;;5012543;28;20481;-68
2022/03/16 05:22:20;;;;;;;27.70;13.43;;;;;;;;;;5013982;28;20253;-68
2022/03/16 05:24:45;;;;;;;30.87;13.70;;;;;;;;;;5013648;28;20060;-68
2022/03/16 05:27:10;;;;;;;32.30;14.30;;;;;;;;;;5014220;28;20264;-68
2022/03/16 05:29:35;;;;;;;27.83;13.43;;;;;;;;;;5013138;28;20499;-68
2022/03/16 05:32:00;;;;;;;30.85;13.77;;;;;;;;;;5012933;28;20269;-68
2022/03/16 05:34:25;;;;;;;28.07;12.90;;;;;;;;;;5013606;28;20033;-68
2022/03/16 05:36:51;;;;;;;26.55;12.00;;;;;;;;;;5013218;28;20799;-68
2022/03/16 05:39:16;;;;;;;27.80;12.68;;;;;;;;;;5013844;28;20144;-68
2022/03/16 05:41:41;;;;;;;29.27;12.47;;;;;;;;;;5013318;28;20021;-68
2022/03/16 05:44:07;;;;;;;25.67;12.77;;;;;;;;;;5013778;28;20761;-68
2022/03/16 05:46:32;;;;;;;28.65;13.02;;;;;;;;;;5013727;28;20330;-68
2022/03/16 05:48:57;;;;;;;25.08;12.70;;;;;;;;;;5012555;28;20033;-68
2022/03/16 05:51:23;;;;;;;24.85;12.25;;;;;;;;;;5010348;28;20076;-68
2022/03/16 05:53:48;;;;;;;25.52;12.27;;;;;;;;;;5011535;28;20026;-68
2022/03/16 05:56:13;;;;;;;27.50;11.02;;;;;;;;;;4990116;28;20029;-68
2022/03/16 05:58:38;;;;;;;29.35;12.20;;;;;;;;;;5007235;28;20041;-68
2022/03/16 06:01:03;;;;;;;25.45;10.70;;;;;;;;;;5010633;28;20076;-70
2022/03/16 06:03:29;;;;;;;33.88;12.65;;;;;;;;;;5009856;28;20018;-68
2022/03/16 06:05:54;;;;;;;26.27;12.70;;;;;;;;;;5009980;28;20103;-69
2022/03/16 06:08:19;;;;;;;25.80;12.48;;;;;;;;;;5010560;28;20513;-69
2022/03/16 06:10:44;;;;;;;21.07;10.23;;;;;;;;;;5012840;28;20092;-67
2022/03/16 06:13:09;;;;;;;27.70;13.00;;;;;;;;;;5010748;28;20312;-68
2022/03/16 06:15:39;;;;;;;28.73;12.70;;;;;;;;;;5010655;28;20326;-69
2022/03/16 06:18:04;;;;;;;25.65;12.35;;;;;;;;;;5011229;28;20030;-69
2022/03/16 06:20:30;;;;;;;34.28;13.55;;;;;;;;;;5010285;28;20353;-69
2022/03/16 06:22:55;;;;;;;26.10;12.52;;;;;;;;;;5010201;28;20026;-69
2022/03/16 06:25:21;;;;;;;32.97;13.85;;;;;;;;;;5010037;28;20014;-69
2022/03/16 06:27:46;;;;;;;29.35;14.93;;;;;;;;;;5010630;28;20025;-68
2022/03/16 06:30:11;;;;;;;28.85;12.25;;;;;;;;;;5009215;28;20646;-68
2022/03/16 06:32:37;;;;;;;27.33;12.70;;;;;;;;;;5010767;28;20026;-68
2022/03/16 06:35:03;;;;;;;32.78;13.00;;;;;;;;;;5010345;28;20501;-68
2022/03/16 06:37:28;;;;;;;31.02;14.38;;;;;;;;;;5010200;28;20057;-68
2022/03/16 06:39:53;;;;;;;32.88;13.90;;;;;;;;;;5010070;28;20061;-68
2022/03/16 06:42:18;;;;;;;33.75;11.88;;;;;;;;;;5010107;28;20106;-68
2022/03/16 06:44:44;;;;;;;29.23;11.07;;;;;;;;;;5009630;28;20387;-69
2022/03/16 06:47:09;;;;;;;33.08;14.05;;;;;;;;;;5011371;28;20079;-68
2022/03/16 06:49:34;;;;;;;25.95;10.77;;;;;;;;;;5011462;28;20025;-68
2022/03/16 06:51:59;;;;;;;24.83;12.07;;;;;;;;;;5011633;28;20090;-68
2022/03/16 06:54:24;;;;;;;31.30;12.88;;;;;;;;;;5011867;28;20272;-68
2022/03/16 06:56:49;;;;;;;26.20;12.00;;;;;;;;;;5011572;28;20037;-68
2022/03/16 06:59:15;;;;;;;27.00;12.57;;;;;;;;;;5011551;28;20049;-68
2022/03/16 07:01:41;;;;;;;26.02;9.95;;;;;;;;;;5010991;28;20281;-69
2022/03/16 07:04:06;;;;;;;26.35;11.00;;;;;;;;;;5011433;28;20022;-65
2022/03/16 07:06:31;;;;;;;14.23;5.57;;;;;;;;;;5012756;28;20021;-69
2022/03/16 07:08:56;;;;;;;27.67;11.40;;;;;;;;;;5011851;28;20374;-69
2022/03/16 07:11:21;;;;;;;19.77;10.00;;;;;;;;;;5007690;28;20041;-69
2022/03/16 07:14:30;;;;;;;27.10;11.50;;;;;;;;;;5010368;28;20276;-69
2022/03/16 07:16:33;;;;;;;21.02;9.55;;;;;;;;;;5010904;28;20273;-69
2022/03/16 07:18:58;;;;;;;19.23;9.40;;;;;;;;;;5008835;28;20026;-69
2022/03/16 07:21:23;;;;;;;16.75;9.43;;;;;;;;;;5010638;28;20028;-69
2022/03/16 07:23:48;;;;;;;16.92;8.80;;;;;;;;;;5009568;28;20049;-69
2022/03/16 07:26:14;;;;;;;16.03;10.00;;;;;;;;;;5011030;28;20386;-69
2022/03/16 07:28:39;;;;;;;22.60;8.93;;;;;;;;;;5010836;28;20269;-69
2022/03/16 07:31:04;;;;;;;19.37;8.10;;;;;;;;;;5012978;28;20761;-69
2022/03/16 07:33:30;;;;;;;24.92;9.88;;;;;;;;;;5010249;28;20323;-70
2022/03/16 07:35:55;;;;;;;8.50;4.53;;;;;;;;;;5011220;28;20022;-71
2022/03/16 07:38:20;;;;;;;11.60;7.38;;;;;;;;;;5008958;28;20083;-68
2022/03/16 07:40:46;;;;;;;14.47;8.93;;;;;;;;;;5010559;28;20021;-69
2022/03/16 07:43:11;;;;;;;14.90;8.50;;;;;;;;;;5009868;28;20419;-69
2022/03/16 07:45:37;;;;;;;12.75;6.50;;;;;;;;;;5012991;28;20467;-68
2022/03/16 07:48:03;;;;;;;21.45;8.48;;;;;;;;;;5014667;28;20018;-69
2022/03/16 07:50:28;;;;;;;11.32;5.28;;;;;;;;;;5009716;28;20498;-69
2022/03/16 07:52:53;;;;;;;15.43;7.18;;;;;;;;;;5006330;28;20253;-68
2022/03/16 07:55:18;;;;;;;12.60;6.30;;;;;;;;;;5010426;28;20027;-69
2022/03/16 07:57:44;;;;;;;8.60;5.67;;;;;;;;;;5010182;28;20033;-68
2022/03/16 08:00:10;;;;;;;14.15;7.20;;;;;;;;;;5008754;28;20269;-69
2022/03/16 08:02:36;;;;;;;18.33;9.93;;;;;;;;;;5007380;28;20018;-69
2022/03/16 08:05:01;;;;;;;17.13;8.88;;;;;;;;;;5011232;28;20025;-72
2022/03/16 08:07:27;;;;;;;9.63;4.88;;;;;;;;;;5009682;28;20013;-68
2022/03/16 08:09:52;;;;;;;13.02;8.20;;;;;;;;;;5008988;28;20013;-68
2022/03/16 08:12:18;;;;;;;12.30;6.90;;;;;;;;;;5013961;28;20028;-69
2022/03/16 08:14:43;;;;;;;21.50;9.30;;;;;;;;;;5009921;28;20036;-70
2022/03/16 08:17:08;;;;;;;16.30;8.73;;;;;;;;;;5009750;28;20769;-71
2022/03/16 08:19:34;;;;;;;18.57;10.57;;;;;;;;;;5009464;28;20038;-70
2022/03/16 08:21:59;;;;;;;15.43;8.82;;;;;;;;;;5010213;28;20276;-70
2022/03/16 08:24:24;;;;;;;14.20;8.03;;;;;;;;;;5010289;28;20026;-70
2022/03/16 08:26:49;;;;;;;14.13;7.20;;;;;;;;;;5010112;28;20691;-70
2022/03/16 08:29:14;;;;;;;10.07;6.60;;;;;;;;;;5009437;28;20088;-70
2022/03/16 08:31:39;;;;;;;13.75;7.80;;;;;;;;;;5009214;28;20272;-70
2022/03/16 08:34:06;;;;;;;12.83;6.80;;;;;;;;;;5010267;28;20398;-70
2022/03/16 08:36:31;;;;;;;11.35;7.32;;;;;;;;;;5009127;28;20272;-71
2022/03/16 08:38:57;;;;;;;9.57;5.10;;;;;;;;;;5009232;28;20498;-69
2022/03/16 08:41:22;;;;;;;10.15;5.82;;;;;;;;;;5008936;28;20093;-69
2022/03/16 08:43:47;;;;;;;13.30;7.57;;;;;;;;;;5012377;28;20021;-69
2022/03/16 08:46:13;;;;;;;12.07;6.75;;;;;;;;;;5009582;28;20362;-69
2022/03/16 08:48:38;;;;;;;13.02;6.35;;;;;;;;;;5009808;28;20025;-69
2022/03/16 08:51:03;;;;;;;12.40;7.45;;;;;;;;;;5008563;28;20033;-69
2022/03/16 08:53:29;;;;;;;13.45;8.23;;;;;;;;;;5010845;28;20152;-69
2022/03/16 08:55:54;;;;;;;11.15;6.18;;;;;;;;;;5011994;28;20735;-69
2022/03/16 08:58:19;;;;;;;9.97;6.10;;;;;;;;;;5012668;28;20030;-69
2022/03/16 09:00:44;;;;;;;11.85;7.45;;;;;;;;;;5012718;28;20312;-69
2022/03/16 09:03:10;;;;;;;11.77;6.80;;;;;;;;;;5013014;28;20152;-69
2022/03/16 09:05:35;;;;;;;14.20;7.18;;;;;;;;;;5011968;28;20117;-69
2022/03/16 09:08:00;;;;;;;15.23;10.03;;;;;;;;;;5013550;28;20038;-69
2022/03/16 09:10:25;;;;;;;8.25;5.07;;;;;;;;;;5014319;28;20637;-70
2022/03/16 09:12:51;;;;;;;12.80;6.80;;;;;;;;;;5013666;28;20026;-70
2022/03/16 09:15:16;;;;;;;13.80;7.70;;;;;;;;;;5013517;28;20115;-70
2022/03/16 09:17:41;;;;;;;11.88;8.20;;;;;;;;;;5012596;28;20359;-70
2022/03/16 09:20:06;;;;;;;11.67;5.67;;;;;;;;;;5015018;28;20024;-70
2022/03/16 09:22:32;;;;;;;9.93;5.50;;;;;;;;;;5011510;28;20665;-70
2022/03/16 09:24:58;;;;;;;11.52;7.35;;;;;;;;;;5013131;28;20109;-70
2022/03/16 09:27:24;;;;;;;17.40;7.55;;;;;;;;;;5011834;28;20484;-70
2022/03/16 09:29:49;;;;;;;10.75;5.90;;;;;;;;;;5011520;28;20018;-70
2022/03/16 09:32:14;;;;;;;12.48;8.27;;;;;;;;;;5012549;28;20017;-70
2022/03/16 09:34:40;;;;;;;15.55;5.32;;;;;;;;;;5012572;28;20088;-70
2022/03/16 09:37:06;;;;;;;11.35;5.40;;;;;;;;;;5012793;28;20033;-70
2022/03/16 09:39:31;;;;;;;9.43;3.88;;;;;;;;;;5012789;28;20494;-70
2022/03/16 09:41:57;;;;;;;8.90;5.57;;;;;;;;;;5012696;28;20446;-70
2022/03/16 09:44:28;;;;;;;9.00;6.38;;;;;;;;;;5012109;28;20117;-70
2022/03/16 09:46:54;;;;;;;12.18;7.72;;;;;;;;;;5009878;28;20430;-70
2022/03/16 09:49:19;;;;;;;14.60;8.77;;;;;;;;;;5012148;28;20072;-70
2022/03/16 09:51:44;;;;;;;12.18;6.43;;;;;;;;;;5011246;28;20112;-70
2022/03/16 09:54:10;;;;;;;12.40;5.17;;;;;;;;;;5012951;28;20079;-70
2022/03/16 09:56:35;;;;;;;7.50;3.88;;;;;;;;;;5010783;28;20637;-70
2022/03/16 09:59:00;;;;;;;12.13;6.00;;;;;;;;;;4994933;28;20029;-70
2022/03/16 10:01:26;;;;;;;12.95;7.30;;;;;;;;;;5010968;28;20093;-70
2022/03/16 10:03:52;;;;;;;8.75;4.95;;;;;;;;;;5012220;28;20017;-70
2022/03/16 10:06:20;;;;;;;9.27;5.90;;;;;;;;;;5010115;28;20014;-70
2022/03/16 10:13:13;;;;;;;10.32;5.60;;;;;;;;;;5011789;28;20092;-70
2022/03/16 10:14:15;;;;;;;12.98;8.07;;;;;;;;;;5011357;28;20117;-70
2022/03/16 10:19:43;;;;;;;10.18;5.30;;;;;;;;;;5011282;28;20024;-70
2022/03/16 10:22:09;;;;;;;10.65;5.20;;;;;;;;;;4993498;28;20113;-70
2022/03/16 10:24:34;;;;;;;8.95;5.40;;;;;;;;;;5011760;28;20045;-70
2022/03/16 10:26:59;;;;;;;8.73;4.57;;;;;;;;;;5010509;28;20057;-70
2022/03/16 10:29:31;;;;;;;10.63;6.30;;;;;;;;;;5010697;28;20622;-70
2022/03/16 10:32:02;;;;;;;9.63;5.85;;;;;;;;;;5010947;28;20289;-70
2022/03/16 10:34:27;;;;;;;9.75;5.10;;;;;;;;;;5001834;28;20624;-70
2022/03/16 10:36:52;;;;;;;9.15;5.57;;;;;;;;;;5010481;28;20041;-70
2022/03/16 10:39:18;;;;;;;9.30;5.80;;;;;;;;;;5011709;28;20026;-70
2022/03/16 10:47:15;;;;;;;8.52;4.88;;;;;;;;;;4993574;28;20033;-71
2022/03/16 10:49:41;;;;;;;8.32;4.18;;;;;;;;;;5009645;28;20033;-71
2022/03/16 10:52:07;;;;;;;11.60;6.72;;;;;;;;;;5009990;28;20018;-71
2022/03/16 10:54:33;;;;;;;9.90;4.88;;;;;;;;;;5010136;28;20081;-71
2022/03/16 10:56:59;;;;;;;6.57;3.92;;;;;;;;;;5011019;28;20022;-71
2022/03/16 10:59:26;;;;;;;7.55;3.92;;;;;;;;;;5011210;28;20030;-71
2022/03/16 11:01:51;;;;;;;9.15;5.68;;;;;;;;;;5009501;28;20031;-71
2022/03/16 11:04:20;;;;;;;10.93;5.10;;;;;;;;;;5010722;28;20033;-71
2022/03/16 11:06:46;;;;;;;9.00;5.72;;;;;;;;;;5010582;28;20018;-71
2022/03/16 11:09:11;;;;;;;7.10;4.22;;;;;;;;;;4993413;28;20378;-72
2022/03/16 11:14:22;;;;;;;5.20;3.70;;;;;;;;;;5011110;28;20033;-71
2022/03/16 11:16:48;;;;;;;11.23;5.63;;;;;;;;;;5010586;28;20028;-71
2022/03/16 11:19:16;;;;;;;9.30;4.65;;;;;;;;;;5010076;28;20096;-71
2022/03/16 11:21:49;;;;;;;8.32;4.43;;;;;;;;;;5011332;28;20068;-71
2022/03/16 11:24:18;;;;;;;9.57;6.03;;;;;;;;;;4993075;28;20057;-71
2022/03/16 11:26:56;;;;;;;9.98;5.63;;;;;;;;;;5011025;28;20049;-71
2022/03/16 11:29:26;;;;;;;6.88;4.25;;;;;;;;;;5006753;28;20022;-72
2022/03/16 11:31:51;;;;;;;;;;;;;;;;;;5007246;28;20049;-71
2022/03/16 11:34:21;;;;;;;3.92;2.70;;;;;;;;;;5010012;28;19959;-71
2022/03/16 11:36:58;;;;;;;8.20;5.00;;;;;;;;;;5009819;28;20437;-72
2022/03/16 11:39:23;;;;;;;7.50;4.70;;;;;;;;;;5005288;28;20084;-72
2022/03/16 11:41:55;;;;;;;6.03;3.60;;;;;;;;;;5009341;28;20014;-71
2022/03/16 11:44:25;;;;;;;7.10;4.25;;;;;;;;;;5010525;28;20282;-71
2022/03/16 11:46:51;;;;;;;5.85;3.42;;;;;;;;;;5009635;28;20518;-71
2022/03/16 11:49:23;;;;;;;6.38;4.25;;;;;;;;;;5009768;28;20021;-71
2022/03/16 11:52:02;;;;;;;7.13;4.45;;;;;;;;;;5010274;28;20057;-71
2022/03/16 11:54:39;;;;;;;5.35;3.55;;;;;;;;;;5010421;28;20109;-70
2022/03/16 11:57:05;;;;;;;5.20;3.10;;;;;;;;;;5009415;28;20030;-72
2022/03/16 11:59:31;;;;;;;9.88;4.07;;;;;;;;;;5009448;28;20454;-70
2022/03/16 12:02:05;;;;;;;4.47;2.83;;;;;;;;;;5009377;28;20053;-70
2022/03/16 12:04:35;;;;;;;7.20;5.05;;;;;;;;;;5009812;28;20022;-70
2022/03/16 12:07:02;;;;;;;7.53;4.78;;;;;;;;;;5009192;28;20084;-70
2022/03/16 12:09:39;;;;;;;6.80;4.20;;;;;;;;;;5007019;28;20574;-71
2022/03/16 12:14:57;;;;;;;7.28;5.00;;;;;;;;;;5006874;28;20033;-70
2022/03/16 12:17:23;;;;;;;9.07;3.85;;;;;;;;;;5014818;28;20524;-70
2022/03/16 12:20:09;;;;;;;8.43;4.43;;;;;;;;;;5009242;28;20022;-72
2022/03/16 12:22:38;;;;;;;3.22;2.20;;;;;;;;;;5009353;28;20529;-71
2022/03/16 12:25:32;;;;;;;6.10;3.33;;;;;;;;;;5009089;28;20119;-71
2022/03/16 12:30:44;;;;;;;5.97;3.65;;;;;;;;;;5008845;28;20103;-70
2022/03/16 12:33:10;;;;;;;5.65;3.45;;;;;;;;;;5009328;28;20025;-70
2022/03/16 12:35:36;;;;;;;6.53;2.88;;;;;;;;;;5008635;28;20026;-72
2022/03/16 12:38:01;;;;;;;6.43;3.80;;;;;;;;;;4989215;28;20277;-71
2022/03/16 12:40:29;;;;;;;6.25;4.22;;;;;;;;;;5004716;28;20030;-71
2022/03/16 12:42:55;;;;;;;8.52;5.25;;;;;;;;;;5008498;28;20495;-72
2022/03/16 12:45:22;;;;;;;10.77;5.93;;;;;;;;;;5008979;28;20029;-71
2022/03/16 12:47:55;;;;;;;8.88;4.03;;;;;;;;;;5003132;28;20498;-70
2022/03/16 12:50:25;;;;;;;6.07;4.28;;;;;;;;;;5006341;28;20116;-70
2022/03/16 12:52:50;;;;;;;;;;;;;;;;;;5006234;28;20018;-70
2022/03/16 12:55:18;;;;;;;5.38;3.83;;;;;;;;;;5004132;28;19917;-70
2022/03/16 12:57:50;;;;;;;6.43;3.53;;;;;;;;;;5002442;28;20018;-71
2022/03/16 13:00:15;;;;;;;6.55;3.08;;;;;;;;;;5004180;28;20018;-71
2022/03/16 13:02:42;;;;;;;8.93;3.60;;;;;;;;;;5009489;28;20407;-71
2022/03/16 13:05:09;;;;;;;8.45;4.00;;;;;;;;;;5010458;28;20466;-71
2022/03/16 13:07:35;;;;;;;6.53;3.97;;;;;;;;;;5001868;28;20108;-71
2022/03/16 13:10:01;;;;;;;10.43;5.53;;;;;;;;;;5010253;28;20029;-71
2022/03/16 13:12:26;;;;;;;6.30;3.92;;;;;;;;;;5009758;28;20022;-71
2022/03/16 13:14:55;;;;;;;9.18;4.32;;;;;;;;;;5009850;28;20533;-71
2022/03/16 13:17:23;;;;;;;5.32;3.25;;;;;;;;;;5006510;28;20084;-71
2022/03/16 13:19:50;;;;;;;6.68;3.40;;;;;;;;;;5009532;28;20030;-71
2022/03/16 13:22:16;;;;;;;7.00;4.30;;;;;;;;;;5009555;28;20020;-72
2022/03/16 13:24:44;;;;;;;11.43;5.20;;;;;;;;;;5009238;28;20018;-71
2022/03/16 13:27:10;;;;;;;8.15;4.72;;;;;;;;;;5008755;28;20022;-70
2022/03/16 13:29:39;;;;;;;5.60;2.85;;;;;;;;;;5007373;28;20240;-71
2022/03/16 13:32:05;;;;;;;7.60;3.90;;;;;;;;;;5006091;28;20032;-71
2022/03/16 13:34:34;;;;;;;5.90;3.60;;;;;;;;;;5008079;28;20478;-70
2022/03/16 13:37:00;;;;;;;11.32;5.35;;;;;;;;;;5008075;28;20030;-69
2022/03/16 13:39:30;;;;;;;12.35;5.10;;;;;;;;;;5007711;28;20037;-71
2022/03/16 13:42:07;;;;;;;6.28;4.07;;;;;;;;;;5009300;28;20442;-69
2022/03/16 13:44:37;;;;;;;12.27;7.15;;;;;;;;;;5012630;28;20033;-69
2022/03/16 13:47:03;;;;;;;8.75;4.63;;;;;;;;;;4995403;28;20370;-71
2022/03/16 13:49:34;;;;;;;6.70;3.85;;;;;;;;;;5013112;28;20033;-72
2022/03/16 13:52:00;;;;;;;8.10;5.15;;;;;;;;;;5012794;28;20021;-69
2022/03/16 13:54:26;;;;;;;9.27;4.00;;;;;;;;;;5012747;28;20044;-68
2022/03/16 13:56:53;;;;;;;10.20;4.40;;;;;;;;;;5014422;28;20030;-71
2022/03/16 13:59:19;;;;;;;6.05;3.63;;;;;;;;;;5012225;28;20029;-69
2022/03/16 14:01:44;;;;;;;12.18;5.20;;;;;;;;;;5009468;28;20030;-69
2022/03/16 14:04:10;;;;;;;6.50;3.95;;;;;;;;;;5008170;28;20096;-69
2022/03/16 14:06:46;;;;;;;7.15;4.55;;;;;;;;;;5010175;28;20029;-71
2022/03/16 14:09:18;;;;;;;5.95;3.47;;;;;;;;;;5008192;28;20023;-71
2022/03/16 14:11:47;;;;;;;9.63;5.70;;;;;;;;;;5011685;28;20823;-70
2022/03/16 14:14:14;;;;;;;9.88;5.25;;;;;;;;;;5011753;28;20474;-69
2022/03/16 14:16:43;;;;;;;10.05;7.00;;;;;;;;;;5012708;28;20026;-69
2022/03/16 14:19:27;;;;;;;6.72;4.15;;;;;;;;;;5013709;28;20037;-69
2022/03/16 14:21:52;;;;;;;4.28;2.67;;;;;;;;;;5011395;28;20489;-70
2022/03/16 14:24:17;;;;;;;6.60;3.90;;;;;;;;;;5011942;28;20030;-70
2022/03/16 14:26:42;;;;;;;7.17;4.13;;;;;;;;;;5011028;28;20499;-69
2022/03/16 14:29:07;;;;;;;6.87;4.07;;;;;;;;;;5012128;28;20602;-70
2022/03/16 14:31:33;;;;;;;7.07;3.57;;;;;;;;;;5011474;28;20280;-69
2022/03/16 14:33:59;;;;;;;4.25;2.33;;;;;;;;;;5015350;28;20272;-70
2022/03/16 14:36:26;;;;;;;4.28;3.13;;;;;;;;;;5011782;28;20542;-70
2022/03/16 14:38:53;;;;;;;8.35;4.85;;;;;;;;;;5008003;28;20049;-70
2022/03/16 14:41:19;;;;;;;6.18;3.60;;;;;;;;;;5011300;28;20026;-70
2022/03/16 14:43:44;;;;;;;9.65;5.57;;;;;;;;;;5010645;28;20022;-70
2022/03/16 14:46:10;;;;;;;7.55;4.18;;;;;;;;;;5011657;28;20068;-70
2022/03/16 14:48:35;;;;;;;6.32;3.65;;;;;;;;;;5008709;28;20112;-70
2022/03/16 14:51:01;;;;;;;5.87;3.40;;;;;;;;;;5010497;28;20124;-70
2022/03/16 14:53:26;;;;;;;12.87;6.40;;;;;;;;;;5011114;28;20366;-70
2022/03/16 14:55:51;;;;;;;7.67;4.50;;;;;;;;;;5009106;28;20272;-70